sensor_id;sensor_type;location;lat;lon;timestamp;pressure;altitude;pressure_sealevel;temperature;humidity
53300;BME280;39187;48.476;8.310;2024-02-23T00:01:44;89360.38;;;1.60;100.00
53300;BME280;39187;48.476;8.310;2024-02-23T00:04:09;89371.28;;;1.58;100.00
53300;BME280;39187;48.476;8.310;2024-02-23T00:06:35;89363.00;;;1.60;100.00
53300;BME280;39187;48.476;8.310;2024-02-23T00:09:01;89382.50;;;1.79;100.00
53300;BME280;39187;48.476;8.310;2024-02-23T00:11:26;89389.47;;;1.46;100.00
53300;BME280;39187;48.476;8.310;2024-02-23T00:13:53;89390.16;;;1.50;100.00
53300;BME280;39187;48.476;8.310;2024-02-23T00:16:19;89383.84;;;1.67;100.00
53300;BME280;39187;48.476;8.310;2024-02-23T00:18:45;89388.91;;;1.35;100.00
53300;BME280;39187;48.476;8.310;2024-02-23T00:21:10;89378.44;;;1.54;100.00
53300;BME280;39187;48.476;8.310;2024-02-23T00:23:36;89386.78;;;1.49;100.00
53300;BME280;39187;48.476;8.310;2024-02-23T00:26:02;89391.28;;;1.49;100.00
53300;BME280;39187;48.476;8.310;2024-02-23T00:28:28;89379.66;;;1.50;100.00
53300;BME280;39187;48.476;8.310;2024-02-23T00:30:53;89380.75;;;1.52;100.00
53300;BME280;39187;48.476;8.310;2024-02-23T00:33:19;89371.28;;;1.58;100.00
53300;BME280;39187;48.476;8.310;2024-02-23T00:35:44;89388.13;;;1.57;100.00
53300;BME280;39187;48.476;8.310;2024-02-23T00:38:10;89391.84;;;1.60;100.00
53300;BME280;39187;48.476;8.310;2024-02-23T00:40:36;89387.31;;;1.60;100.00
53300;BME280;39187;48.476;8.310;2024-02-23T00:43:01;89396.88;;;1.51;100.00
53300;BME280;39187;48.476;8.310;2024-02-23T00:45:28;89385.91;;;1.56;100.00
53300;BME280;39187;48.476;8.310;2024-02-23T00:47:54;89387.13;;;1.51;100.00
53300;BME280;39187;48.476;8.310;2024-02-23T00:50:19;89393.66;;;1.63;100.00
53300;BME280;39187;48.476;8.310;2024-02-23T00:52:45;89385.72;;;1.47;100.00
53300;BME280;39187;48.476;8.310;2024-02-23T00:55:10;89389.84;;;1.25;100.00
53300;BME280;39187;48.476;8.310;2024-02-23T00:57:36;89387.06;;;1.55;100.00
53300;BME280;39187;48.476;8.310;2024-02-23T01:00:03;89365.47;;;1.47;100.00
53300;BME280;39187;48.476;8.310;2024-02-23T01:02:31;89368.56;;;1.42;100.00
53300;BME280;39187;48.476;8.310;2024-02-23T01:04:58;89373.03;;;1.65;100.00
53300;BME280;39187;48.476;8.310;2024-02-23T01:07:24;89379.06;;;1.62;100.00
53300;BME280;39187;48.476;8.310;2024-02-23T01:09:50;89406.03;;;1.63;100.00
53300;BME280;39187;48.476;8.310;2024-02-23T01:12:15;89398.09;;;1.46;100.00
53300;BME280;39187;48.476;8.310;2024-02-23T01:14:41;89405.00;;;1.56;100.00
53300;BME280;39187;48.476;8.310;2024-02-23T01:17:06;89411.06;;;1.53;100.00
53300;BME280;39187;48.476;8.310;2024-02-23T01:19:32;89417.97;;;1.20;100.00
53300;BME280;39187;48.476;8.310;2024-02-23T01:21:58;89424.88;;;1.34;100.00
53300;BME280;39187;48.476;8.310;2024-02-23T01:24:27;89418.50;;;1.55;100.00
53300;BME280;39187;48.476;8.310;2024-02-23T01:26:56;89434.00;;;1.69;100.00
53300;BME280;39187;48.476;8.310;2024-02-23T01:29:22;89413.34;;;1.51;100.00
53300;BME280;39187;48.476;8.310;2024-02-23T01:31:48;89425.19;;;1.36;100.00
53300;BME280;39187;48.476;8.310;2024-02-23T01:34:14;89428.31;;;1.51;100.00
53300;BME280;39187;48.476;8.310;2024-02-23T01:36:39;89444.00;;;1.31;100.00
53300;BME280;39187;48.476;8.310;2024-02-23T01:39:05;89444.72;;;1.55;100.00
53300;BME280;39187;48.476;8.310;2024-02-23T01:41:31;89444.56;;;1.42;100.00
53300;BME280;39187;48.476;8.310;2024-02-23T01:43:57;89428.91;;;1.39;100.00
53300;BME280;39187;48.476;8.310;2024-02-23T01:46:23;89426.16;;;1.46;100.00
53300;BME280;39187;48.476;8.310;2024-02-23T01:48:48;89435.25;;;1.61;100.00
53300;BME280;39187;48.476;8.310;2024-02-23T01:51:14;89439.75;;;1.41;100.00
53300;BME280;39187;48.476;8.310;2024-02-23T01:53:40;89444.09;;;1.47;100.00
53300;BME280;39187;48.476;8.310;2024-02-23T01:56:06;89443.72;;;1.49;100.00
53300;BME280;39187;48.476;8.310;2024-02-23T01:58:33;89442.69;;;1.66;100.00
53300;BME280;39187;48.476;8.310;2024-02-23T02:01:00;89448.84;;;1.33;100.00
53300;BME280;39187;48.476;8.310;2024-02-23T02:03:26;89458.38;;;1.46;100.00
53300;BME280;39187;48.476;8.310;2024-02-23T02:05:52;89441.94;;;1.42;100.00
53300;BME280;39187;48.476;8.310;2024-02-23T02:08:19;89448.16;;;1.52;100.00
53300;BME280;39187;48.476;8.310;2024-02-23T02:10:45;89445.31;;;1.43;100.00
53300;BME280;39187;48.476;8.310;2024-02-23T02:13:12;89472.06;;;1.34;100.00
53300;BME280;39187;48.476;8.310;2024-02-23T02:15:38;89468.09;;;1.46;100.00
53300;BME280;39187;48.476;8.310;2024-02-23T02:18:04;89457.66;;;1.42;100.00
53300;BME280;39187;48.476;8.310;2024-02-23T02:20:32;89467.38;;;1.45;100.00
53300;BME280;39187;48.476;8.310;2024-02-23T02:22:59;89458.69;;;1.25;100.00
53300;BME280;39187;48.476;8.310;2024-02-23T02:25:24;89454.66;;;1.44;100.00
53300;BME280;39187;48.476;8.310;2024-02-23T02:27:50;89457.31;;;1.17;100.00
53300;BME280;39187;48.476;8.310;2024-02-23T02:30:15;89458.59;;;1.32;100.00
53300;BME280;39187;48.476;8.310;2024-02-23T02:32:41;89455.34;;;1.01;100.00
53300;BME280;39187;48.476;8.310;2024-02-23T02:35:07;89450.91;;;1.22;100.00
53300;BME280;39187;48.476;8.310;2024-02-23T02:37:33;89447.25;;;1.15;100.00
53300;BME280;39187;48.476;8.310;2024-02-23T02:39:58;89457.00;;;1.15;100.00
53300;BME280;39187;48.476;8.310;2024-02-23T02:42:24;89454.94;;;1.26;100.00
53300;BME280;39187;48.476;8.310;2024-02-23T02:44:49;89448.22;;;1.25;100.00
53300;BME280;39187;48.476;8.310;2024-02-23T02:47:14;89454.94;;;1.26;100.00
53300;BME280;39187;48.476;8.310;2024-02-23T02:49:40;89465.19;;;0.90;100.00
53300;BME280;39187;48.476;8.310;2024-02-23T02:52:05;89445.06;;;1.10;100.00
53300;BME280;39187;48.476;8.310;2024-02-23T02:54:31;89452.53;;;1.12;100.00
53300;BME280;39187;48.476;8.310;2024-02-23T02:56:56;89450.00;;;1.08;100.00
53300;BME280;39187;48.476;8.310;2024-02-23T02:59:23;89435.50;;;1.24;100.00
53300;BME280;39187;48.476;8.310;2024-02-23T03:01:48;89441.50;;;1.01;100.00
53300;BME280;39187;48.476;8.310;2024-02-23T03:04:14;89428.44;;;0.97;100.00
53300;BME280;39187;48.476;8.310;2024-02-23T03:06:40;89441.88;;;1.23;100.00
53300;BME280;39187;48.476;8.310;2024-02-23T03:09:05;89439.56;;;1.05;100.00
53300;BME280;39187;48.476;8.310;2024-02-23T03:11:33;89439.63;;;1.25;100.00
53300;BME280;39187;48.476;8.310;2024-02-23T03:13:58;89422.88;;;1.18;100.00
53300;BME280;39187;48.476;8.310;2024-02-23T03:16:24;89427.09;;;0.89;100.00
53300;BME280;39187;48.476;8.310;2024-02-23T03:18:52;89426.59;;;1.21;100.00
53300;BME280;39187;48.476;8.310;2024-02-23T03:21:19;89436.94;;;1.28;100.00
53300;BME280;39187;48.476;8.310;2024-02-23T03:23:45;89422.66;;;1.33;100.00
53300;BME280;39187;48.476;8.310;2024-02-23T03:26:10;89416.16;;;1.41;100.00
53300;BME280;39187;48.476;8.310;2024-02-23T03:28:36;89427.13;;;0.86;100.00
53300;BME280;39187;48.476;8.310;2024-02-23T03:31:01;89430.94;;;1.04;100.00
53300;BME280;39187;48.476;8.310;2024-02-23T03:33:27;89437.38;;;1.23;100.00
53300;BME280;39187;48.476;8.310;2024-02-23T03:35:52;89437.56;;;0.89;100.00
53300;BME280;39187;48.476;8.310;2024-02-23T03:38:18;89440.00;;;1.23;100.00
53300;BME280;39187;48.476;8.310;2024-02-23T03:40:43;89452.75;;;0.98;100.00
53300;BME280;39187;48.476;8.310;2024-02-23T03:43:09;89447.06;;;1.03;100.00
53300;BME280;39187;48.476;8.310;2024-02-23T03:45:34;89452.91;;;1.14;100.00
53300;BME280;39187;48.476;8.310;2024-02-23T03:48:00;89456.53;;;1.20;100.00
53300;BME280;39187;48.476;8.310;2024-02-23T03:50:29;89448.50;;;1.07;100.00
53300;BME280;39187;48.476;8.310;2024-02-23T03:52:54;89436.88;;;1.32;100.00
53300;BME280;39187;48.476;8.310;2024-02-23T03:55:19;89441.94;;;1.42;100.00
53300;BME280;39187;48.476;8.310;2024-02-23T03:57:45;89437.22;;;1.10;100.00
53300;BME280;39187;48.476;8.310;2024-02-23T04:00:11;89428.72;;;1.03;100.00
53300;BME280;39187;48.476;8.310;2024-02-23T04:02:38;89440.59;;;1.34;100.00
53300;BME280;39187;48.476;8.310;2024-02-23T04:05:04;89440.28;;;0.82;100.00
53300;BME280;39187;48.476;8.310;2024-02-23T04:07:29;89442.09;;;0.85;100.00
53300;BME280;39187;48.476;8.310;2024-02-23T04:09:55;89449.81;;;0.96;100.00
53300;BME280;39187;48.476;8.310;2024-02-23T04:12:21;89444.03;;;1.04;100.00
53300;BME280;39187;48.476;8.310;2024-02-23T04:14:47;89440.19;;;1.12;100.00
53300;BME280;39187;48.476;8.310;2024-02-23T04:17:13;89431.31;;;0.79;100.00
53300;BME280;39187;48.476;8.310;2024-02-23T04:19:40;89427.56;;;1.07;100.00
53300;BME280;39187;48.476;8.310;2024-02-23T04:22:06;89417.84;;;1.04;100.00
53300;BME280;39187;48.476;8.310;2024-02-23T04:24:36;89430.94;;;0.81;100.00
53300;BME280;39187;48.476;8.310;2024-02-23T04:27:01;89425.50;;;0.68;100.00
53300;BME280;39187;48.476;8.310;2024-02-23T04:29:27;89431.81;;;0.98;100.00
53300;BME280;39187;48.476;8.310;2024-02-23T04:31:53;89429.16;;;1.01;100.00
53300;BME280;39187;48.476;8.310;2024-02-23T04:34:18;89435.63;;;1.16;100.00
53300;BME280;39187;48.476;8.310;2024-02-23T04:36:44;89428.34;;;1.04;100.00
53300;BME280;39187;48.476;8.310;2024-02-23T04:39:09;89431.66;;;1.08;100.00
53300;BME280;39187;48.476;8.310;2024-02-23T04:41:34;89430.06;;;1.14;100.00
53300;BME280;39187;48.476;8.310;2024-02-23T04:44:00;89424.94;;;1.07;100.00
53300;BME280;39187;48.476;8.310;2024-02-23T04:46:27;89418.78;;;0.94;100.00
53300;BME280;39187;48.476;8.310;2024-02-23T04:48:52;89424.06;;;1.14;100.00
53300;BME280;39187;48.476;8.310;2024-02-23T04:51:18;89424.41;;;0.93;100.00
53300;BME280;39187;48.476;8.310;2024-02-23T04:53:44;89414.53;;;0.77;100.00
53300;BME280;39187;48.476;8.310;2024-02-23T04:56:09;89417.31;;;0.90;100.00
53300;BME280;39187;48.476;8.310;2024-02-23T04:58:35;89409.69;;;0.75;100.00
53300;BME280;39187;48.476;8.310;2024-02-23T05:01:01;89418.78;;;0.67;100.00
53300;BME280;39187;48.476;8.310;2024-02-23T05:03:28;89422.97;;;0.88;100.00
53300;BME280;39187;48.476;8.310;2024-02-23T05:05:54;89419.91;;;0.66;100.00
53300;BME280;39187;48.476;8.310;2024-02-23T05:08:22;89422.09;;;0.71;100.00
53300;BME280;39187;48.476;8.310;2024-02-23T05:10:50;89416.34;;;0.57;100.00
53300;BME280;39187;48.476;8.310;2024-02-23T05:13:16;89419.75;;;0.77;100.00
53300;BME280;39187;48.476;8.310;2024-02-23T05:15:42;89422.19;;;0.64;100.00
53300;BME280;39187;48.476;8.310;2024-02-23T05:18:07;89414.09;;;0.82;100.00
53300;BME280;39187;48.476;8.310;2024-02-23T05:20:33;89404.97;;;0.67;100.00
53300;BME280;39187;48.476;8.310;2024-02-23T05:22:58;89411.97;;;0.73;100.00
53300;BME280;39187;48.476;8.310;2024-02-23T05:25:24;89420.06;;;0.56;100.00
53300;BME280;39187;48.476;8.310;2024-02-23T05:27:51;89421.31;;;0.74;100.00
53300;BME280;39187;48.476;8.310;2024-02-23T05:30:16;89410.22;;;0.90;100.00
53300;BME280;39187;48.476;8.310;2024-02-23T05:32:42;89412.06;;;0.66;100.00
53300;BME280;39187;48.476;8.310;2024-02-23T05:35:07;89408.25;;;0.71;100.00
53300;BME280;39187;48.476;8.310;2024-02-23T05:37:35;89400.56;;;0.60;100.00
53300;BME280;39187;48.476;8.310;2024-02-23T05:40:00;89399.72;;;0.67;100.00
53300;BME280;39187;48.476;8.310;2024-02-23T05:42:29;89398.50;;;0.75;100.00
53300;BME280;39187;48.476;8.310;2024-02-23T05:44:55;89390.84;;;0.61;100.00
53300;BME280;39187;48.476;8.310;2024-02-23T05:47:20;89393.56;;;0.54;100.00
53300;BME280;39187;48.476;8.310;2024-02-23T05:49:47;89390.53;;;0.55;100.00
53300;BME280;39187;48.476;8.310;2024-02-23T05:52:12;89390.94;;;0.54;100.00
53300;BME280;39187;48.476;8.310;2024-02-23T05:54:38;89384.66;;;0.48;100.00
53300;BME280;39187;48.476;8.310;2024-02-23T05:57:03;89391.75;;;0.51;100.00
53300;BME280;39187;48.476;8.310;2024-02-23T05:59:30;89384.72;;;0.44;100.00
53300;BME280;39187;48.476;8.310;2024-02-23T06:01:55;89383.53;;;0.49;100.00
53300;BME280;39187;48.476;8.310;2024-02-23T06:04:24;89388.22;;;0.34;100.00
53300;BME280;39187;48.476;8.310;2024-02-23T06:06:49;89388.22;;;0.34;100.00
53300;BME280;39187;48.476;8.310;2024-02-23T06:09:15;89385.97;;;0.36;100.00
53300;BME280;39187;48.476;8.310;2024-02-23T06:11:41;89378.13;;;0.32;100.00
53300;BME280;39187;48.476;8.310;2024-02-23T06:14:07;89387.03;;;0.38;100.00
53300;BME280;39187;48.476;8.310;2024-02-23T06:16:33;89394.00;;;0.22;100.00
53300;BME280;39187;48.476;8.310;2024-02-23T06:18:59;89400.91;;;0.35;100.00
53300;BME280;39187;48.476;8.310;2024-02-23T06:21:24;89396.75;;;0.11;100.00
53300;BME280;39187;48.476;8.310;2024-02-23T06:23:50;89391.91;;;0.10;100.00
53300;BME280;39187;48.476;8.310;2024-02-23T06:26:16;89395.69;;;0.35;100.00
53300;BME280;39187;48.476;8.310;2024-02-23T06:28:42;89388.19;;;0.07;100.00
53300;BME280;39187;48.476;8.310;2024-02-23T06:31:08;89398.91;;;0.16;100.00
53300;BME280;39187;48.476;8.310;2024-02-23T06:33:33;89394.53;;;0.10;100.00
53300;BME280;39187;48.476;8.310;2024-02-23T06:35:59;89392.66;;;0.10;100.00
53300;BME280;39187;48.476;8.310;2024-02-23T06:38:25;89388.72;;;-0.05;100.00
53300;BME280;39187;48.476;8.310;2024-02-23T06:40:51;89384.16;;;0.03;100.00
53300;BME280;39187;48.476;8.310;2024-02-23T06:43:17;89391.75;;;0.20;100.00
53300;BME280;39187;48.476;8.310;2024-02-23T06:45:42;89378.88;;;0.06;100.00
53300;BME280;39187;48.476;8.310;2024-02-23T06:48:08;89365.53;;;-0.03;100.00
53300;BME280;39187;48.476;8.310;2024-02-23T06:50:34;89375.09;;;0.11;100.00
53300;BME280;39187;48.476;8.310;2024-02-23T06:53:00;89368.97;;;0.21;100.00
53300;BME280;39187;48.476;8.310;2024-02-23T06:55:25;89379.28;;;0.05;100.00
53300;BME280;39187;48.476;8.310;2024-02-23T06:57:51;89400.06;;;0.15;100.00
53300;BME280;39187;48.476;8.310;2024-02-23T07:00:17;89396.47;;;0.02;100.00
53300;BME280;39187;48.476;8.310;2024-02-23T07:02:42;89389.72;;;0.05;100.00
53300;BME280;39187;48.476;8.310;2024-02-23T07:05:08;89394.38;;;-0.10;100.00
53300;BME280;39187;48.476;8.310;2024-02-23T07:07:34;89406.16;;;0.05;100.00
53300;BME280;39187;48.476;8.310;2024-02-23T07:10:00;89405.31;;;-0.19;100.00
53300;BME280;39187;48.476;8.310;2024-02-23T07:12:26;89413.06;;;-0.08;100.00
53300;BME280;39187;48.476;8.310;2024-02-23T07:14:57;89419.44;;;-0.13;100.00
53300;BME280;39187;48.476;8.310;2024-02-23T07:17:23;89419.31;;;-0.36;100.00
53300;BME280;39187;48.476;8.310;2024-02-23T07:19:48;89420.19;;;-0.12;100.00
53300;BME280;39187;48.476;8.310;2024-02-23T07:22:16;89425.16;;;-0.21;100.00
53300;BME280;39187;48.476;8.310;2024-02-23T07:24:43;89429.56;;;-0.15;100.00
53300;BME280;39187;48.476;8.310;2024-02-23T07:27:09;89422.72;;;-0.39;100.00
53300;BME280;39187;48.476;8.310;2024-02-23T07:29:35;89437.19;;;-0.31;100.00
53300;BME280;39187;48.476;8.310;2024-02-23T07:32:01;89435.13;;;-0.13;100.00
53300;BME280;39187;48.476;8.310;2024-02-23T07:34:26;89425.97;;;-0.28;100.00
53300;BME280;39187;48.476;8.310;2024-02-23T07:36:52;89430.00;;;-0.20;100.00
53300;BME280;39187;48.476;8.310;2024-02-23T07:39:18;89434.63;;;-0.01;100.00
53300;BME280;39187;48.476;8.310;2024-02-23T07:41:43;89447.47;;;-0.13;100.00
53300;BME280;39187;48.476;8.310;2024-02-23T07:44:09;89439.28;;;-0.19;100.00
53300;BME280;39187;48.476;8.310;2024-02-23T07:46:34;89443.31;;;-0.11;100.00
53300;BME280;39187;48.476;8.310;2024-02-23T07:49:00;89453.56;;;0.07;100.00
53300;BME280;39187;48.476;8.310;2024-02-23T07:51:25;89446.84;;;-0.24;100.00
53300;BME280;39187;48.476;8.310;2024-02-23T07:53:51;89449.06;;;0.11;100.00
53300;BME280;39187;48.476;8.310;2024-02-23T07:56:16;89456.38;;;0.23;100.00
53300;BME280;39187;48.476;8.310;2024-02-23T07:58:42;89450.31;;;0.30;100.00
53300;BME280;39187;48.476;8.310;2024-02-23T08:01:08;89457.34;;;0.36;100.00
53300;BME280;39187;48.476;8.310;2024-02-23T08:03:33;89445.25;;;0.46;100.00
53300;BME280;39187;48.476;8.310;2024-02-23T08:05:59;89448.78;;;0.32;100.00
53300;BME280;39187;48.476;8.310;2024-02-23T08:08:26;89452.34;;;0.46;100.00
53300;BME280;39187;48.476;8.310;2024-02-23T08:10:53;89449.47;;;0.94;100.00
53300;BME280;39187;48.476;8.310;2024-02-23T08:13:19;89447.38;;;1.08;100.00
53300;BME280;39187;48.476;8.310;2024-02-23T08:15:44;89447.25;;;1.39;100.00
53300;BME280;39187;48.476;8.310;2024-02-23T08:18:10;89443.53;;;1.79;100.00
53300;BME280;39187;48.476;8.310;2024-02-23T08:20:36;89448.75;;;2.03;100.00
53300;BME280;39187;48.476;8.310;2024-02-23T08:23:01;89449.38;;;2.10;100.00
53300;BME280;39187;48.476;8.310;2024-02-23T08:25:27;89444.91;;;2.47;100.00
53300;BME280;39187;48.476;8.310;2024-02-23T08:27:56;89437.63;;;2.54;100.00
53300;BME280;39187;48.476;8.310;2024-02-23T08:30:22;89438.47;;;2.67;100.00
53300;BME280;39187;48.476;8.310;2024-02-23T08:32:47;89438.19;;;2.98;100.00
53300;BME280;39187;48.476;8.310;2024-02-23T08:35:13;89435.06;;;3.35;100.00
53300;BME280;39187;48.476;8.310;2024-02-23T08:37:40;89430.69;;;3.61;100.00
53300;BME280;39187;48.476;8.310;2024-02-23T08:40:07;89427.81;;;4.00;100.00
53300;BME280;39187;48.476;8.310;2024-02-23T08:42:33;89418.41;;;4.16;100.00
53300;BME280;39187;48.476;8.310;2024-02-23T08:44:59;89412.69;;;4.17;100.00
53300;BME280;39187;48.476;8.310;2024-02-23T08:47:24;89405.53;;;4.72;100.00
53300;BME280;39187;48.476;8.310;2024-02-23T08:49:53;89407.44;;;5.09;100.00
53300;BME280;39187;48.476;8.310;2024-02-23T08:52:18;89413.84;;;5.34;100.00
53300;BME280;39187;48.476;8.310;2024-02-23T08:54:44;89411.84;;;5.25;100.00
53300;BME280;39187;48.476;8.310;2024-02-23T08:57:09;89407.53;;;5.31;95.70
53300;BME280;39187;48.476;8.310;2024-02-23T08:59:35;89408.69;;;5.77;97.76
53300;BME280;39187;48.476;8.310;2024-02-23T09:02:00;89397.63;;;6.04;91.97
53300;BME280;39187;48.476;8.310;2024-02-23T09:04:26;89410.16;;;5.91;84.02
53300;BME280;39187;48.476;8.310;2024-02-23T09:06:51;89411.09;;;6.40;83.76
53300;BME280;39187;48.476;8.310;2024-02-23T09:09:18;89418.91;;;6.00;85.61
53300;BME280;39187;48.476;8.310;2024-02-23T09:11:44;89413.00;;;5.84;83.04
53300;BME280;39187;48.476;8.310;2024-02-23T09:14:09;89411.47;;;5.61;81.19
53300;BME280;39187;48.476;8.310;2024-02-23T09:16:34;89417.59;;;6.05;78.27
53300;BME280;39187;48.476;8.310;2024-02-23T09:19:00;89420.50;;;6.20;76.85
53300;BME280;39187;48.476;8.310;2024-02-23T09:21:25;89406.56;;;6.19;78.30
53300;BME280;39187;48.476;8.310;2024-02-23T09:23:51;89426.31;;;5.93;77.10
53300;BME280;39187;48.476;8.310;2024-02-23T09:26:16;89416.00;;;6.29;79.44
53300;BME280;39187;48.476;8.310;2024-02-23T09:28:43;89411.84;;;6.19;76.81
53300;BME280;39187;48.476;8.310;2024-02-23T09:31:10;89411.41;;;6.21;80.24
53300;BME280;39187;48.476;8.310;2024-02-23T09:33:36;89406.72;;;6.47;75.95
53300;BME280;39187;48.476;8.310;2024-02-23T09:36:02;89416.59;;;5.77;76.29
53300;BME280;39187;48.476;8.310;2024-02-23T09:38:28;89414.31;;;5.67;78.10
53300;BME280;39187;48.476;8.310;2024-02-23T09:40:53;89409.00;;;5.79;75.34
53300;BME280;39187;48.476;8.310;2024-02-23T09:43:21;89410.47;;;5.80;76.81
53300;BME280;39187;48.476;8.310;2024-02-23T09:45:53;89400.75;;;5.77;74.84
53300;BME280;39187;48.476;8.310;2024-02-23T09:48:20;89408.78;;;5.86;75.98
53300;BME280;39187;48.476;8.310;2024-02-23T09:50:47;89407.41;;;5.94;74.44
53300;BME280;39187;48.476;8.310;2024-02-23T09:53:13;89407.56;;;5.65;78.42
53300;BME280;39187;48.476;8.310;2024-02-23T09:55:39;89403.28;;;5.93;76.00
53300;BME280;39187;48.476;8.310;2024-02-23T09:58:06;89414.69;;;5.43;77.79
53300;BME280;39187;48.476;8.310;2024-02-23T10:00:34;89412.91;;;5.87;76.53
53300;BME280;39187;48.476;8.310;2024-02-23T10:03:01;89410.28;;;6.09;73.06
53300;BME280;39187;48.476;8.310;2024-02-23T10:05:30;89427.84;;;6.03;77.77
53300;BME280;39187;48.476;8.310;2024-02-23T10:07:56;89417.50;;;6.30;73.47
53300;BME280;39187;48.476;8.310;2024-02-23T10:10:30;89407.47;;;6.03;74.34
53300;BME280;39187;48.476;8.310;2024-02-23T10:12:57;89411.31;;;5.30;77.70
53300;BME280;39187;48.476;8.310;2024-02-23T10:15:23;89410.19;;;5.18;82.78
53300;BME280;39187;48.476;8.310;2024-02-23T10:17:50;89413.78;;;5.72;78.28
53300;BME280;39187;48.476;8.310;2024-02-23T10:20:15;89422.28;;;5.41;78.64
53300;BME280;39187;48.476;8.310;2024-02-23T10:22:43;89413.81;;;6.06;74.62
53300;BME280;39187;48.476;8.310;2024-02-23T10:25:09;89415.13;;;5.76;76.54
53300;BME280;39187;48.476;8.310;2024-02-23T10:27:34;89421.06;;;5.68;77.79
53300;BME280;39187;48.476;8.310;2024-02-23T10:30:00;89419.00;;;5.50;77.58
53300;BME280;39187;48.476;8.310;2024-02-23T10:32:29;89431.59;;;5.08;80.49
53300;BME280;39187;48.476;8.310;2024-02-23T10:34:55;89434.00;;;5.40;78.43
53300;BME280;39187;48.476;8.310;2024-02-23T10:37:23;89421.56;;;5.28;80.40
53300;BME280;39187;48.476;8.310;2024-02-23T10:39:51;89426.31;;;5.20;80.77
53300;BME280;39187;48.476;8.310;2024-02-23T10:42:23;89423.66;;;5.20;80.84
53300;BME280;39187;48.476;8.310;2024-02-23T10:44:51;89423.25;;;4.97;84.21
53300;BME280;39187;48.476;8.310;2024-02-23T10:47:19;89431.91;;;5.10;84.58
53300;BME280;39187;48.476;8.310;2024-02-23T10:49:46;89425.44;;;5.49;81.90
53300;BME280;39187;48.476;8.310;2024-02-23T10:52:13;89420.47;;;5.38;81.16
53300;BME280;39187;48.476;8.310;2024-02-23T10:54:40;89426.09;;;5.28;80.26
53300;BME280;39187;48.476;8.310;2024-02-23T10:57:06;89425.13;;;5.34;81.10
53300;BME280;39187;48.476;8.310;2024-02-23T10:59:32;89422.81;;;5.36;82.88
53300;BME280;39187;48.476;8.310;2024-02-23T11:01:58;89422.22;;;5.67;79.63
53300;BME280;39187;48.476;8.310;2024-02-23T11:04:26;89415.44;;;5.44;77.12
53300;BME280;39187;48.476;8.310;2024-02-23T11:06:54;89423.03;;;5.29;78.00
53300;BME280;39187;48.476;8.310;2024-02-23T11:09:24;89419.22;;;5.43;75.47
53300;BME280;39187;48.476;8.310;2024-02-23T11:11:57;89431.59;;;5.08;75.75
53300;BME280;39187;48.476;8.310;2024-02-23T11:14:35;89432.75;;;3.98;80.80
53300;BME280;39187;48.476;8.310;2024-02-23T11:17:01;89429.28;;;4.30;79.56
53300;BME280;39187;48.476;8.310;2024-02-23T11:19:34;89427.72;;;4.04;84.28
53300;BME280;39187;48.476;8.310;2024-02-23T11:22:00;89434.41;;;4.21;82.40
53300;BME280;39187;48.476;8.310;2024-02-23T11:24:28;89438.84;;;4.24;84.56
53300;BME280;39187;48.476;8.310;2024-02-23T11:26:58;89432.72;;;4.69;81.67
53300;BME280;39187;48.476;8.310;2024-02-23T11:29:27;89434.81;;;4.74;81.78
53300;BME280;39187;48.476;8.310;2024-02-23T11:31:54;89431.69;;;4.79;81.35
53300;BME280;39187;48.476;8.310;2024-02-23T11:34:26;89424.59;;;4.63;81.94
53300;BME280;39187;48.476;8.310;2024-02-23T11:36:52;89424.53;;;5.05;76.42
53300;BME280;39187;48.476;8.310;2024-02-23T11:39:19;89418.50;;;4.79;77.25
53300;BME280;39187;48.476;8.310;2024-02-23T11:41:48;89413.28;;;4.37;80.03
53300;BME280;39187;48.476;8.310;2024-02-23T11:44:14;89426.50;;;4.75;78.54
53300;BME280;39187;48.476;8.310;2024-02-23T11:46:42;89428.59;;;4.55;80.35
53300;BME280;39187;48.476;8.310;2024-02-23T11:49:08;89429.06;;;4.37;82.00
53300;BME280;39187;48.476;8.310;2024-02-23T11:51:34;89425.97;;;4.68;78.62
53300;BME280;39187;48.476;8.310;2024-02-23T11:54:00;89422.38;;;4.08;83.05
53300;BME280;39187;48.476;8.310;2024-02-23T11:56:26;89417.03;;;4.24;84.38
53300;BME280;39187;48.476;8.310;2024-02-23T11:58:53;89418.31;;;4.32;84.86
53300;BME280;39187;48.476;8.310;2024-02-23T12:01:19;89415.00;;;4.69;82.83
53300;BME280;39187;48.476;8.310;2024-02-23T12:03:44;89418.72;;;4.97;80.17
53300;BME280;39187;48.476;8.310;2024-02-23T12:06:11;89425.47;;;4.86;79.35
53300;BME280;39187;48.476;8.310;2024-02-23T12:08:36;89420.69;;;4.68;81.98
53300;BME280;39187;48.476;8.310;2024-02-23T12:11:07;89416.25;;;4.52;82.98
53300;BME280;39187;48.476;8.310;2024-02-23T12:13:36;89409.66;;;4.73;83.72
53300;BME280;39187;48.476;8.310;2024-02-23T12:16:02;89402.03;;;4.75;84.04
53300;BME280;39187;48.476;8.310;2024-02-23T12:18:28;89403.31;;;4.83;81.91
53300;BME280;39187;48.476;8.310;2024-02-23T12:21:05;89400.28;;;4.84;79.67
53300;BME280;39187;48.476;8.310;2024-02-23T12:23:48;89408.97;;;4.43;82.22
53300;BME280;39187;48.476;8.310;2024-02-23T12:26:17;89403.44;;;4.79;81.99
53300;BME280;39187;48.476;8.310;2024-02-23T12:28:43;89405.72;;;4.52;83.22
53300;BME280;39187;48.476;8.310;2024-02-23T12:31:09;89398.59;;;4.78;82.30
53300;BME280;39187;48.476;8.310;2024-02-23T12:33:37;89405.84;;;4.74;83.41
53300;BME280;39187;48.476;8.310;2024-02-23T12:36:05;89404.03;;;4.46;84.92
53300;BME280;39187;48.476;8.310;2024-02-23T12:38:31;89403.19;;;4.49;84.27
53300;BME280;39187;48.476;8.310;2024-02-23T12:40:59;89405.13;;;4.86;81.77
53300;BME280;39187;48.476;8.310;2024-02-23T12:43:24;89407.41;;;4.59;82.04
53300;BME280;39187;48.476;8.310;2024-02-23T12:45:51;89410.22;;;4.39;84.80
53300;BME280;39187;48.476;8.310;2024-02-23T12:48:18;89406.69;;;4.58;82.29
53300;BME280;39187;48.476;8.310;2024-02-23T12:50:44;89403.63;;;4.06;85.42
53300;BME280;39187;48.476;8.310;2024-02-23T12:53:36;89411.03;;;4.23;84.01
53300;BME280;39187;48.476;8.310;2024-02-23T12:56:10;89415.06;;;3.99;85.81
53300;BME280;39187;48.476;8.310;2024-02-23T12:58:38;89411.47;;;4.22;84.92